01:53
Airports
History
Links
Donate
Help keep this website running!
PayPal
Bitcoin
This page is community maintained. The information is intended for PC simulator navigation or reference.
Always use approved charts for navigation.
RJTK
KISARAZU
KISARAZU (RJTK)
Kisarazu-shi, Chiba Prefecture, Japan (292)
(C)
Lat/Lng:35° 23' 53.78" N / 139° 54' 35.77" E
35.398271 / 139.909936
Elevation:10'ft / 3mMSL
ID / ICAO:RJTK
Runways:1
Longest:02-20
Asphalt 1,835m / 6,019ft
Controlled:Yes
METAR05:21 GMT 2017-11-23
Altimeter: 29.56
Visibility: 6.2 statute miles
Wind: 8 knots (from 360°)
Temp: 13°c / 55°f
Humidity: 82.0%

METAR: RJTK 230521Z 36008KT 9999 FEW010 BKN060 13/10 Q1001 RMK 2CU010 6SC060 A2956

(Powered by phpweather)
Airport Radio Frequencies
Tower: 126.2, 138.05
Approach: 119.1
Nearby VORs <50NM
Nearby NDBs
Runway 02 / 20
Dimensions:1834.6 x 45.7m 6019' x 150'ft
Surface:Asphalt
Edge Lights:Medium intensity
Runway 02 [A]Runway 20 [B]
Heading:015°TH 195°TH
Lat:
Lng:
35° 23' 25.19"N
139° 54' 26.13"E
35° 24' 22.36"N
139° 54' 45.41"E
User Notes and Comments
35° 23' 53.78" N / 139° 54' 35.77" E
Distance To
Airport ID:
Nearby Airports
(C) Tokyo Haneda Intl 12.2 NM
RJTT ( WX ) NW 326°
(C) ATSUGI NAF 26.2 NM
RJTA ( WX ) W 278°
(C) SHIMOFUSA 28.3 NM
RJTL ( WX ) N 11°
(C) Chofu 28.6 NM
RJTF ( WX ) NW 311°
(C) TATEYAMA 28.8 NM
RJTE ( WX ) S 189°
(C) KASTNER AAF 30.1 NM
RJTR ( WX ) WNW 285°
(C) Tachikawa AB 35.7 NM
RJTC ( WX ) NW 307°
VFR Chart
Flight Planning at SkyVector.com